MOL Partner — 3EBZ5 — position and weather

sailwx.info

Track history (hours):
 
Tides and Currents Weather Stations Pressure Air Temp Water Temp Dewpoint Dewpoint Depression Visibility Wind Speed Wind Dir Waves Ship Positions

MOL Partner

Last reported at 2014-Nov-27 15:33 UTC. Time now 2014-Nov-27 16:06 UTC.
Position N 38°50' E 121°57'.

Length 293 m; draft 11 m.

Type: Ship (hazmat cat D). MMSI: 371303000.

Date/timePositionNaut miles runAvg speedWind from/ knotsBaromVisibWave heightAir tempDewpointWater temp
2014-Nov-27 15:33N 38°50' E 121°57'1616.4
2014-Nov-27 14:33N 38°35' E 121°49'1616.2
2014-Nov-27 13:33N 38°29' E 121°30'1817.6
2014-Nov-27 12:32N 38°28' E 121°07'14418.0
2014-Nov-27 04:33N 38°54' E 118°06'9 9.5
2014-Nov-27 03:33N 38°57' E 117°54'5 5.5
2014-Nov-27 02:33N 38°59' E 117°47'0 0.1
2014-Nov-27 01:28N 38°59' E 117°47'0 0.0
2014-Nov-27 00:28N 38°59' E 117°47'0 0.0
2014-Nov-26 23:28N 38°59' E 117°47'0 0.0
2014-Nov-26 22:28N 38°59' E 117°47'0 0.0
2014-Nov-26 21:10N 38°59' E 117°47'0 0.0
2014-Nov-26 20:04N 38°59' E 117°47'0 0.0
2014-Nov-26 16:28N 38°59' E 117°47'0 0.0
2014-Nov-26 15:28N 38°59' E 117°47'0 0.0
2014-Nov-26 14:10N 38°59' E 117°47'0 0.0
2014-Nov-26 13:28N 38°59' E 117°47'0 0.0
2014-Nov-26 12:22N 38°59' E 117°47'0 0.0
2014-Nov-26 11:22N 38°59' E 117°47'0 0.0
2014-Nov-26 10:04N 38°59' E 117°47'0 0.0
2014-Nov-26 08:16N 38°59' E 117°47'0 0.0
2014-Nov-26 07:28N 38°59' E 117°47'0 0.0
2014-Nov-26 06:28N 38°59' E 117°47'0 0.0
2014-Nov-26 05:28N 38°59' E 117°47'0 0.0
2014-Nov-26 04:22N 38°59' E 117°47'0 0.0
2014-Nov-26 03:28N 38°59' E 117°47'0 0.0
2014-Nov-26 02:22N 38°59' E 117°47'0 0.0
2014-Nov-26 01:22N 38°59' E 117°47'0 0.0
2014-Nov-26 00:28N 38°59' E 117°47'0 0.0
2014-Nov-25 23:22N 38°59' E 117°47'0 0.5
2014-Nov-25 22:33N 38°59' E 117°48'1111.3
2014-Nov-25 21:33N 38°56' E 118°02'10 9.3
2014-Nov-25 20:31N 38°52' E 118°13'6916.0
2014-Nov-25 16:11N 38°45' E 119°41'8217.3
2014-Nov-25 11:29N 38°24' E 121°22'3919.3
2014-Nov-25 09:27N 38°02' E 122°04'2319.6
2014-Nov-25 08:17N 37°50' E 122°29'4218.7
2014-Nov-25 06:03N 37°27' E 123°13'49716.8
2014-Nov-24 00:24N 29°10' E 123°07'34617.4
2014-Nov-23 04:32N 24°30' E 119°18'2216.0
2014-Nov-23 03:11N 24°17' E 118°59'2716.4
2014-Nov-23 01:33N 24°01' E 118°36'1919.3
2014-Nov-23 00:33N 23°48' E 118°20'2220.0
2014-Nov-22 23:27N 23°34' E 118°02'2018.5
2014-Nov-22 22:23N 23°22' E 117°45'3717.0
2014-Nov-22 20:12N 22°60' E 117°12'1216.7
2014-Nov-22 19:28N 22°53' E 117°02'1516.2
2014-Nov-22 18:33N 22°44' E 116°48'14015.6
2014-Nov-22 09:33N 22°34' E 114°17'0 0.0
2014-Nov-22 02:18N 22°34' E 114°16'0 0.0
2014-Nov-21 23:30N 22°34' E 114°16'0 0.0
2014-Nov-21 22:24N 22°34' E 114°16'0 0.0
2014-Nov-21 21:24N 22°34' E 114°16'0 0.0
2014-Nov-21 16:18N 22°34' E 114°16'0 0.0
2014-Nov-21 14:33N 22°34' E 114°16'17 2.8
2014-Nov-21 08:33N 22°20' E 114°07'1 0.3
2014-Nov-21 06:21N 22°20' E 114°08'0 0.0
2014-Nov-20 17:33N 22°20' E 114°08'9 6.8
2014-Nov-20 16:12N 22°11' E 114°12'  
Track history (hours):
 
Tides and Currents Weather Stations Pressure Air Temp Water Temp Dewpoint Dewpoint Depression Visibility Wind Speed Wind Dir Waves Ship Positions

MOL Partner

Last reported at 2014-Nov-27 15:33 UTC. Time now 2014-Nov-27 16:06 UTC.
Position N 38°50' E 121°57'.

Length 293 m; draft 11 m.

Type: Ship (hazmat cat D). MMSI: 371303000.

Date/timePositionNaut miles runAvg speedWind from/ knotsBaromVisibWave heightAir tempDewpointWater temp
2014-Nov-27 15:33N 38°50' E 121°57'1616.4
2014-Nov-27 14:33N 38°35' E 121°49'1616.2
2014-Nov-27 13:33N 38°29' E 121°30'1817.6
2014-Nov-27 12:32N 38°28' E 121°07'14418.0
2014-Nov-27 04:33N 38°54' E 118°06'9 9.5
2014-Nov-27 03:33N 38°57' E 117°54'5 5.5
2014-Nov-27 02:33N 38°59' E 117°47'0 0.1
2014-Nov-27 01:28N 38°59' E 117°47'0 0.0
2014-Nov-27 00:28N 38°59' E 117°47'0 0.0
2014-Nov-26 23:28N 38°59' E 117°47'0 0.0
2014-Nov-26 22:28N 38°59' E 117°47'0 0.0
2014-Nov-26 21:10N 38°59' E 117°47'0 0.0
2014-Nov-26 20:04N 38°59' E 117°47'0 0.0
2014-Nov-26 16:28N 38°59' E 117°47'0 0.0
2014-Nov-26 15:28N 38°59' E 117°47'0 0.0
2014-Nov-26 14:10N 38°59' E 117°47'0 0.0
2014-Nov-26 13:28N 38°59' E 117°47'0 0.0
2014-Nov-26 12:22N 38°59' E 117°47'0 0.0
2014-Nov-26 11:22N 38°59' E 117°47'0 0.0
2014-Nov-26 10:04N 38°59' E 117°47'0 0.0
2014-Nov-26 08:16N 38°59' E 117°47'0 0.0
2014-Nov-26 07:28N 38°59' E 117°47'0 0.0
2014-Nov-26 06:28N 38°59' E 117°47'0 0.0
2014-Nov-26 05:28N 38°59' E 117°47'0 0.0
2014-Nov-26 04:22N 38°59' E 117°47'0 0.0
2014-Nov-26 03:28N 38°59' E 117°47'0 0.0
2014-Nov-26 02:22N 38°59' E 117°47'0 0.0
2014-Nov-26 01:22N 38°59' E 117°47'0 0.0
2014-Nov-26 00:28N 38°59' E 117°47'0 0.0
2014-Nov-25 23:22N 38°59' E 117°47'0 0.5
2014-Nov-25 22:33N 38°59' E 117°48'1111.3
2014-Nov-25 21:33N 38°56' E 118°02'10 9.3
2014-Nov-25 20:31N 38°52' E 118°13'6916.0
2014-Nov-25 16:11N 38°45' E 119°41'8217.3
2014-Nov-25 11:29N 38°24' E 121°22'3919.3
2014-Nov-25 09:27N 38°02' E 122°04'2319.6
2014-Nov-25 08:17N 37°50' E 122°29'4218.7
2014-Nov-25 06:03N 37°27' E 123°13'49716.8
2014-Nov-24 00:24N 29°10' E 123°07'34617.4
2014-Nov-23 04:32N 24°30' E 119°18'2216.0
2014-Nov-23 03:11N 24°17' E 118°59'2716.4
2014-Nov-23 01:33N 24°01' E 118°36'1919.3
2014-Nov-23 00:33N 23°48' E 118°20'2220.0
2014-Nov-22 23:27N 23°34' E 118°02'2018.5
2014-Nov-22 22:23N 23°22' E 117°45'3717.0
2014-Nov-22 20:12N 22°60' E 117°12'1216.7
2014-Nov-22 19:28N 22°53' E 117°02'1516.2
2014-Nov-22 18:33N 22°44' E 116°48'14015.6
2014-Nov-22 09:33N 22°34' E 114°17'0 0.0
2014-Nov-22 02:18N 22°34' E 114°16'0 0.0
2014-Nov-21 23:30N 22°34' E 114°16'0 0.0
2014-Nov-21 22:24N 22°34' E 114°16'0 0.0
2014-Nov-21 21:24N 22°34' E 114°16'0 0.0
2014-Nov-21 16:18N 22°34' E 114°16'0 0.0
2014-Nov-21 14:33N 22°34' E 114°16'17 2.8
2014-Nov-21 08:33N 22°20' E 114°07'1 0.3
2014-Nov-21 06:21N 22°20' E 114°08'0 0.0
2014-Nov-20 17:33N 22°20' E 114°08'9 6.8
2014-Nov-20 16:12N 22°11' E 114°12'  

Dump ship's entire track history